createdAt,value
2022-11-08T00:00:44.571Z,437.37
2022-11-08T00:03:12.316Z,457.10
2022-11-08T00:05:57.776Z,456.95
2022-11-08T00:08:43.033Z,447.80
2022-11-08T00:11:28.382Z,461.73
2022-11-08T00:13:58.479Z,433.23
2022-11-08T00:16:25.870Z,440.30
2022-11-08T00:18:52.606Z,443.58
2022-11-08T00:21:19.253Z,444.77
2022-11-08T00:23:45.986Z,438.75
2022-11-08T00:26:12.670Z,435.83
2022-11-08T00:28:39.281Z,444.93
2022-11-08T00:31:06.670Z,443.55
2022-11-08T00:33:33.372Z,439.38
2022-11-08T00:36:00.520Z,437.63
2022-11-08T00:38:27.179Z,438.02
2022-11-08T00:40:55.558Z,435.75
2022-11-08T00:43:22.196Z,443.38
2022-11-08T00:45:48.782Z,447.60
2022-11-08T00:48:15.682Z,450.63
2022-11-08T00:50:42.553Z,431.92
2022-11-08T00:53:09.131Z,440.67
2022-11-08T00:55:35.704Z,445.92
2022-11-08T00:58:02.287Z,448.23
2022-11-08T01:00:28.839Z,444.83
2022-11-08T01:03:16.887Z,444.60
2022-11-08T01:05:43.580Z,440.10
2022-11-08T01:08:11.724Z,440.65
2022-11-08T01:10:42.758Z,444.92
2022-11-08T01:13:10.125Z,439.38
2022-11-08T01:15:40.492Z,436.50
2022-11-08T01:18:07.945Z,437.25
2022-11-08T01:20:39.210Z,448.02
2022-11-08T01:23:05.797Z,444.05
2022-11-08T01:25:37.168Z,443.30
2022-11-08T01:28:04.250Z,435.70
2022-11-08T01:30:30.887Z,435.83
2022-11-08T01:32:57.410Z,454.45
2022-11-08T01:35:23.996Z,438.45
2022-11-08T01:37:52.537Z,435.48
2022-11-08T01:40:19.163Z,464.20
2022-11-08T01:42:45.725Z,436.63
2022-11-08T01:45:13.000Z,453.38
2022-11-08T01:47:39.603Z,445.10
2022-11-08T01:50:12.528Z,447.45
2022-11-08T01:52:47.787Z,442.02
2022-11-08T01:55:28.202Z,445.70
2022-11-08T01:58:10.830Z,442.75
2022-11-08T02:00:39.289Z,435.05
2022-11-08T02:03:09.361Z,425.20
2022-11-08T02:05:36.104Z,426.27
2022-11-08T02:08:13.216Z,450.20
2022-11-08T02:10:43.168Z,442.77
2022-11-08T02:13:15.092Z,437.05
2022-11-08T02:15:42.614Z,442.45
2022-11-08T02:18:09.658Z,450.67
2022-11-08T02:20:36.632Z,458.88
2022-11-08T02:23:14.593Z,438.08
2022-11-08T02:25:41.236Z,434.02
2022-11-08T02:28:07.780Z,441.63
2022-11-08T02:30:38.817Z,441.57
2022-11-08T02:33:18.662Z,432.77
2022-11-08T02:35:49.294Z,433.90
2022-11-08T02:38:17.681Z,433.40
2022-11-08T02:40:49.160Z,442.70
2022-11-08T02:43:19.515Z,446.35
2022-11-08T02:45:46.375Z,446.13
2022-11-08T02:48:13.664Z,468.02
2022-11-08T02:50:40.954Z,451.75
2022-11-08T02:53:08.092Z,449.65
2022-11-08T02:55:35.249Z,452.40
2022-11-08T02:58:02.817Z,453.92
2022-11-08T03:00:29.789Z,448.02
2022-11-08T03:02:57.691Z,457.67
2022-11-08T03:05:26.445Z,460.93
2022-11-08T03:07:56.675Z,475.27
2022-11-08T03:10:27.347Z,471.83
2022-11-08T03:12:58.355Z,480.13
2022-11-08T03:15:25.756Z,463.35
2022-11-08T03:17:52.378Z,452.38
2022-11-08T03:20:19.386Z,451.92
2022-11-08T03:22:46.984Z,446.40
2022-11-08T03:25:13.972Z,434.55
2022-11-08T03:27:40.646Z,436.40
2022-11-08T03:30:07.895Z,428.92
2022-11-08T03:32:34.438Z,441.23
2022-11-08T03:35:01.035Z,437.60
2022-11-08T03:37:27.684Z,432.50
2022-11-08T03:39:54.323Z,432.63
2022-11-08T03:42:20.943Z,436.63
2022-11-08T03:44:47.491Z,432.48
2022-11-08T03:47:14.048Z,429.55
2022-11-08T03:49:40.550Z,440.77
2022-11-08T03:52:07.186Z,436.77
2022-11-08T03:54:33.813Z,435.55
2022-11-08T03:57:00.397Z,433.00
2022-11-08T03:59:26.934Z,428.53
2022-11-08T04:01:53.704Z,448.65
2022-11-08T04:04:20.454Z,437.27
2022-11-08T04:06:47.056Z,435.38
2022-11-08T04:09:16.457Z,430.52
2022-11-08T04:12:04.670Z,426.88
2022-11-08T04:14:49.584Z,437.20
2022-11-08T04:17:16.236Z,432.38
2022-11-08T04:20:01.009Z,410.70
2022-11-08T04:22:27.603Z,417.90
2022-11-08T04:24:54.247Z,442.35
2022-11-08T04:27:20.906Z,436.23
2022-11-08T04:29:47.560Z,438.15
2022-11-08T04:32:14.336Z,439.25
2022-11-08T04:34:40.960Z,431.65
2022-11-08T04:37:07.631Z,441.85
2022-11-08T04:39:35.608Z,430.35
2022-11-08T04:42:02.845Z,425.20
2022-11-08T04:44:29.538Z,430.15
2022-11-08T04:46:57.242Z,430.63
2022-11-08T04:49:23.813Z,438.55
2022-11-08T04:51:50.533Z,437.38
2022-11-08T04:54:17.209Z,435.63
2022-11-08T04:56:43.835Z,442.85
2022-11-08T04:59:12.097Z,439.58
2022-11-08T05:01:39.039Z,448.50
2022-11-08T05:04:05.835Z,427.17
2022-11-08T05:06:32.842Z,427.73
2022-11-08T05:09:00.322Z,429.30
2022-11-08T05:11:28.948Z,432.73
2022-11-08T05:13:56.316Z,441.38
2022-11-08T05:16:30.946Z,435.67
2022-11-08T05:18:58.285Z,443.45
2022-11-08T05:21:43.898Z,442.92
2022-11-08T05:24:12.789Z,430.98
2022-11-08T05:26:42.602Z,431.42
2022-11-08T05:29:10.288Z,419.08
2022-11-08T05:31:37.077Z,420.67
2022-11-08T05:34:04.234Z,424.35
2022-11-08T05:36:30.845Z,412.20
2022-11-08T05:38:57.396Z,413.45
2022-11-08T05:41:25.692Z,421.45
2022-11-08T05:43:54.645Z,422.35
2022-11-08T05:46:22.858Z,420.85
2022-11-08T05:48:50.298Z,424.33
2022-11-08T05:51:19.039Z,425.10
2022-11-08T05:53:47.220Z,434.42
2022-11-08T05:56:14.040Z,429.13
2022-11-08T05:58:40.846Z,436.88
2022-11-08T06:01:11.166Z,427.08
2022-11-08T06:03:38.401Z,430.23
2022-11-08T06:06:10.933Z,439.73
2022-11-08T06:08:38.498Z,443.08
2022-11-08T06:11:09.504Z,448.47
2022-11-08T06:13:36.778Z,451.98
2022-11-08T06:16:06.372Z,450.38
2022-11-08T06:18:35.607Z,452.67
2022-11-08T06:21:04.364Z,441.90
2022-11-08T06:23:31.557Z,432.23
2022-11-08T06:25:59.024Z,452.95
2022-11-08T06:28:25.925Z,451.85
2022-11-08T06:30:52.710Z,437.75
2022-11-08T06:33:20.899Z,430.52
2022-11-08T06:35:47.986Z,432.17
2022-11-08T06:38:14.714Z,437.43
2022-11-08T06:40:41.494Z,443.20
2022-11-08T06:43:16.451Z,441.48
2022-11-08T06:45:45.880Z,446.27
2022-11-08T06:48:12.641Z,445.08
2022-11-08T06:50:39.261Z,445.63
2022-11-08T06:53:07.860Z,445.05
2022-11-08T06:55:35.413Z,445.75
2022-11-08T06:58:03.599Z,441.63
2022-11-08T07:00:31.167Z,425.38
2022-11-08T07:03:01.650Z,445.17
2022-11-08T07:05:30.573Z,450.45
2022-11-08T07:08:01.512Z,435.92
2022-11-08T07:10:32.825Z,461.23
2022-11-08T07:13:01.181Z,438.13
2022-11-08T07:15:28.250Z,425.40
2022-11-08T07:17:55.167Z,437.65
2022-11-08T07:20:24.424Z,435.42
2022-11-08T07:22:54.749Z,476.02
2022-11-08T07:25:21.981Z,440.15
2022-11-08T07:27:49.250Z,442.90
2022-11-08T07:30:15.905Z,436.92
2022-11-08T07:32:42.737Z,448.50
2022-11-08T07:35:09.479Z,434.63
2022-11-08T07:37:36.131Z,463.05
2022-11-08T07:40:02.904Z,428.15
2022-11-08T07:42:43.838Z,449.77
2022-11-08T07:45:17.708Z,427.92
2022-11-08T07:47:44.283Z,466.33
2022-11-08T07:50:10.986Z,447.20
2022-11-08T07:52:37.724Z,425.25
2022-11-08T07:55:04.653Z,448.05
2022-11-08T07:57:31.248Z,432.88
2022-11-08T07:59:57.874Z,436.55
2022-11-08T08:02:24.581Z,446.33
2022-11-08T08:04:51.272Z,459.50
2022-11-08T08:07:17.955Z,453.20
2022-11-08T08:09:44.573Z,469.63
2022-11-08T08:12:11.312Z,471.02
2022-11-08T08:14:37.992Z,455.02
2022-11-08T08:17:04.696Z,444.00
2022-11-08T08:19:31.457Z,458.45
2022-11-08T08:21:58.224Z,444.95
2022-11-08T08:24:26.546Z,433.88
2022-11-08T08:26:53.388Z,430.40
2022-11-08T08:29:20.060Z,444.53
2022-11-08T08:31:46.703Z,431.25
2022-11-08T08:34:15.634Z,441.08
2022-11-08T08:36:42.442Z,424.50
2022-11-08T08:39:09.367Z,422.10
2022-11-08T08:41:35.914Z,434.95
2022-11-08T08:44:02.544Z,424.48
2022-11-08T08:46:29.183Z,422.38
2022-11-08T08:48:55.734Z,421.70
2022-11-08T08:51:22.684Z,427.17
2022-11-08T08:53:49.241Z,432.30
2022-11-08T08:56:15.948Z,429.42
2022-11-08T08:58:42.567Z,446.65
2022-11-08T09:03:59.087Z,428.35
2022-11-08T09:06:25.719Z,429.38
2022-11-08T09:08:52.317Z,422.70
2022-11-08T09:11:19.149Z,436.15
2022-11-08T09:13:45.764Z,422.02
2022-11-08T09:16:16.792Z,428.42
2022-11-08T09:18:43.541Z,421.83
2022-11-08T09:21:10.176Z,430.58
2022-11-08T09:23:36.736Z,425.75
2022-11-08T09:26:05.558Z,423.25
2022-11-08T09:28:33.929Z,419.08
2022-11-08T09:31:02.450Z,420.67
2022-11-08T09:33:29.462Z,414.05
2022-11-08T09:35:56.080Z,421.77
2022-11-08T09:38:23.084Z,433.80
2022-11-08T09:40:59.956Z,421.95
2022-11-08T09:43:29.435Z,424.95
2022-11-08T09:45:57.435Z,417.38
2022-11-08T09:48:38.862Z,422.20
2022-11-08T09:51:19.436Z,425.23
2022-11-08T09:53:53.900Z,439.33
2022-11-08T09:56:36.042Z,419.10
2022-11-08T09:59:26.984Z,442.83
2022-11-08T10:01:53.732Z,427.07
2022-11-08T10:04:29.965Z,441.50
2022-11-08T10:07:30.054Z,432.63
2022-11-08T10:09:59.583Z,421.65
2022-11-08T10:12:50.083Z,455.17
2022-11-08T10:15:35.331Z,419.33
2022-11-08T10:18:34.349Z,422.20
2022-11-08T10:21:04.984Z,431.73
2022-11-08T10:23:44.377Z,444.95
2022-11-08T10:26:27.016Z,431.52
2022-11-08T10:29:07.237Z,427.73
2022-11-08T10:31:37.392Z,433.33
2022-11-08T10:34:30.396Z,427.38
2022-11-08T10:37:05.044Z,472.75
2022-11-08T10:39:38.085Z,453.98
2022-11-08T10:42:29.871Z,454.10
2022-11-08T10:44:59.503Z,464.00
2022-11-08T10:47:29.329Z,451.20
2022-11-08T10:50:02.454Z,447.13
2022-11-08T10:52:49.200Z,454.48
2022-11-08T10:55:23.844Z,438.58
2022-11-08T10:57:50.458Z,449.30
2022-11-08T11:00:20.027Z,448.50
2022-11-08T11:02:50.825Z,442.23
2022-11-08T11:05:22.112Z,452.40
2022-11-08T11:08:03.861Z,435.52
2022-11-08T11:10:41.000Z,455.15
2022-11-08T11:16:00.806Z,423.60
2022-11-08T11:18:33.290Z,455.57
2022-11-08T11:21:08.760Z,421.20
2022-11-08T11:23:49.398Z,442.10
2022-11-08T11:26:32.064Z,423.05
2022-11-08T11:29:07.647Z,434.27
2022-11-08T11:31:41.443Z,455.23
2022-11-08T11:34:17.179Z,413.25
2022-11-08T11:36:55.179Z,447.00
2022-11-08T11:39:49.931Z,418.83
2022-11-08T11:42:44.435Z,442.52
2022-11-08T11:45:21.586Z,423.48
2022-11-08T11:47:55.122Z,445.63
2022-11-08T11:50:36.825Z,429.23
2022-11-08T11:53:07.242Z,450.38
2022-11-08T11:55:41.286Z,441.42
2022-11-08T11:58:33.288Z,447.90
2022-11-08T12:01:15.202Z,424.67
2022-11-08T12:04:00.157Z,416.92
2022-11-08T12:06:44.200Z,413.20
2022-11-08T12:09:29.119Z,422.15
2022-11-08T12:12:22.904Z,413.23
2022-11-08T12:15:08.745Z,408.27
2022-11-08T12:18:25.719Z,409.48
2022-11-08T12:21:22.784Z,414.52
2022-11-08T12:24:21.832Z,400.63
2022-11-08T12:27:05.453Z,405.73
2022-11-08T12:29:51.403Z,407.45
2022-11-08T12:32:43.891Z,408.83
2022-11-08T12:35:48.905Z,409.50
2022-11-08T12:38:30.810Z,404.48
2022-11-08T12:41:12.045Z,399.80
2022-11-08T12:43:53.840Z,424.35
2022-11-08T12:46:21.204Z,410.98
2022-11-08T12:49:31.913Z,410.33
2022-11-08T12:52:33.907Z,421.67
2022-11-08T12:55:04.724Z,410.55
2022-11-08T12:57:32.200Z,416.52
2022-11-08T13:00:08.530Z,417.13
2022-11-08T13:02:40.323Z,412.42
2022-11-08T13:05:24.708Z,425.00
2022-11-08T13:08:08.651Z,421.05
2022-11-08T13:10:40.384Z,417.08
2022-11-08T13:13:31.779Z,411.05
2022-11-08T13:16:17.499Z,413.75
2022-11-08T13:18:54.040Z,411.40
2022-11-08T13:21:38.956Z,414.90
2022-11-08T13:24:13.932Z,420.05
2022-11-08T13:26:42.695Z,425.27
2022-11-08T13:29:18.263Z,412.88
2022-11-08T13:32:08.402Z,415.43
2022-11-08T13:34:56.594Z,414.15
2022-11-08T13:37:41.693Z,407.48
2022-11-08T13:40:31.728Z,408.80
2022-11-08T13:43:20.366Z,413.00
2022-11-08T13:45:47.781Z,407.48
2022-11-08T13:48:21.392Z,416.05
2022-11-08T13:50:58.213Z,408.42
2022-11-08T13:53:43.589Z,413.10
2022-11-08T13:56:10.310Z,403.88
2022-11-08T13:58:59.352Z,408.85
2022-11-08T14:01:38.568Z,406.98
2022-11-08T14:04:27.045Z,406.35
2022-11-08T14:07:05.942Z,405.58
2022-11-08T14:09:40.149Z,410.23
2022-11-08T14:12:25.925Z,414.70
2022-11-08T14:15:07.261Z,413.10
2022-11-08T14:17:39.030Z,422.10
2022-11-08T14:20:37.655Z,420.27
2022-11-08T14:23:19.608Z,412.58
2022-11-08T14:25:51.208Z,419.25
2022-11-08T14:28:28.756Z,409.60
2022-11-08T14:30:56.850Z,413.42
2022-11-08T14:33:30.561Z,427.40
2022-11-08T14:36:08.567Z,417.27
2022-11-08T14:39:01.325Z,425.20
2022-11-08T14:41:31.889Z,422.90
2022-11-08T14:44:00.633Z,414.63
2022-11-08T14:46:37.267Z,422.50
2022-11-08T14:49:18.758Z,423.30
2022-11-08T14:51:46.452Z,428.40
2022-11-08T14:54:25.230Z,419.17
2022-11-08T14:56:54.659Z,411.63
2022-11-08T14:59:24.794Z,415.08
2022-11-08T15:01:51.668Z,432.90
2022-11-08T15:04:26.895Z,447.92
2022-11-08T15:06:56.415Z,448.13
2022-11-08T15:09:29.347Z,463.45
2022-11-08T15:12:00.714Z,468.65
2022-11-08T15:14:33.860Z,473.95
2022-11-08T15:17:03.440Z,472.67
2022-11-08T15:19:42.151Z,491.93
2022-11-08T15:22:43.986Z,480.17
2022-11-08T15:25:33.015Z,478.48
2022-11-08T15:28:35.324Z,472.02
2022-11-08T15:31:05.328Z,491.52
2022-11-08T15:33:37.637Z,484.55
2022-11-08T15:36:15.084Z,477.02
2022-11-08T15:38:49.305Z,472.13
2022-11-08T15:41:38.541Z,465.92
2022-11-08T15:44:24.540Z,461.57
2022-11-08T15:46:53.430Z,463.83
2022-11-08T15:49:24.292Z,434.83
2022-11-08T15:51:55.007Z,440.55
2022-11-08T15:54:34.314Z,451.08
2022-11-08T15:57:03.666Z,466.90
2022-11-08T15:59:35.886Z,453.67
2022-11-08T16:02:02.948Z,460.42
2022-11-08T16:04:29.964Z,457.70
2022-11-08T16:06:57.409Z,467.30
2022-11-08T16:09:27.499Z,467.25
2022-11-08T16:11:57.097Z,462.58
2022-11-08T16:14:24.885Z,459.45
2022-11-08T16:16:52.226Z,466.10
2022-11-08T16:19:22.486Z,475.15
2022-11-08T16:21:49.581Z,462.07
2022-11-08T16:24:16.708Z,456.90
2022-11-08T16:26:45.660Z,460.48
2022-11-08T16:29:21.590Z,454.60
2022-11-08T16:31:50.236Z,460.98
2022-11-08T16:34:17.399Z,455.25
2022-11-08T16:36:46.768Z,449.88
2022-11-08T16:39:22.685Z,448.65
2022-11-08T16:41:49.689Z,464.48
2022-11-08T16:44:22.751Z,452.48
2022-11-08T16:46:53.257Z,468.08
2022-11-08T16:49:27.453Z,455.20
2022-11-08T16:52:00.380Z,463.17
2022-11-08T16:54:32.926Z,468.92
2022-11-08T16:57:28.372Z,462.17
2022-11-08T16:59:52.729Z,469.10
2022-11-08T17:02:30.995Z,468.23
2022-11-08T17:05:04.402Z,461.07
2022-11-08T17:07:33.399Z,458.10
2022-11-08T17:10:10.170Z,447.80
2022-11-08T17:12:37.028Z,469.88
2022-11-08T17:15:04.147Z,464.75
2022-11-08T17:17:31.193Z,469.05
2022-11-08T17:19:57.890Z,465.27
2022-11-08T17:22:24.636Z,465.90
2022-11-08T17:24:51.254Z,457.50
2022-11-08T17:27:19.858Z,445.15
2022-11-08T17:29:46.459Z,452.38
2022-11-08T17:32:13.102Z,444.07
2022-11-08T17:34:40.064Z,450.45
2022-11-08T17:37:06.618Z,444.40
2022-11-08T17:39:33.225Z,450.95
2022-11-08T17:42:02.566Z,450.60
2022-11-08T17:44:29.571Z,461.48
2022-11-08T17:46:56.252Z,444.55
2022-11-08T17:49:23.040Z,436.20
2022-11-08T17:51:49.731Z,429.63
2022-11-08T17:54:19.510Z,443.33
2022-11-08T17:56:46.576Z,459.67
2022-11-08T17:59:16.605Z,453.48
2022-11-08T18:01:46.238Z,466.08
2022-11-08T18:04:15.649Z,463.95
2022-11-08T18:06:43.265Z,453.00
2022-11-08T18:09:13.211Z,445.55
2022-11-08T18:11:44.270Z,446.15
2022-11-08T18:14:12.279Z,434.73
2022-11-08T18:16:38.836Z,443.05
2022-11-08T18:19:15.672Z,441.02
2022-11-08T18:21:44.378Z,437.43
2022-11-08T18:24:14.237Z,447.65
2022-11-08T18:26:40.834Z,446.25
2022-11-08T18:29:07.392Z,453.95
2022-11-08T18:31:34.409Z,439.90
2022-11-08T18:34:01.399Z,431.70
2022-11-08T18:36:29.681Z,442.98
2022-11-08T18:39:01.412Z,458.20
2022-11-08T18:41:31.324Z,445.83
2022-11-08T18:43:59.525Z,467.88
2022-11-08T18:46:34.291Z,449.90
2022-11-08T18:49:05.137Z,443.67
2022-11-08T18:51:31.944Z,448.27
2022-11-08T18:53:58.900Z,445.50
2022-11-08T18:56:27.526Z,444.30
2022-11-08T18:58:54.397Z,445.35
2022-11-08T19:01:21.105Z,430.20
2022-11-08T19:03:48.003Z,436.67
2022-11-08T19:06:14.595Z,438.77
2022-11-08T19:08:41.247Z,433.77
2022-11-08T19:11:12.949Z,444.13
2022-11-08T19:13:42.246Z,446.90
2022-11-08T19:16:12.263Z,442.38
2022-11-08T19:18:38.895Z,450.35
2022-11-08T19:21:07.923Z,457.15
2022-11-08T19:23:35.041Z,466.75
2022-11-08T19:26:05.130Z,429.80
2022-11-08T19:28:36.851Z,432.43
2022-11-08T19:31:03.906Z,435.73
2022-11-08T19:33:32.078Z,430.92
2022-11-08T19:36:19.791Z,439.85
2022-11-08T19:38:46.825Z,444.17
2022-11-08T19:41:16.013Z,430.10
2022-11-08T19:43:44.003Z,424.15
2022-11-08T19:46:17.815Z,428.27
2022-11-08T19:48:46.358Z,425.92
2022-11-08T19:51:16.190Z,426.00
2022-11-08T19:53:43.386Z,420.52
2022-11-08T19:56:14.053Z,425.15
2022-11-08T19:58:41.814Z,425.52
2022-11-08T20:01:15.037Z,424.95
2022-11-08T20:03:47.667Z,421.63
2022-11-08T20:06:17.103Z,424.02
2022-11-08T20:08:55.388Z,429.52
2022-11-08T20:11:27.738Z,430.98
2022-11-08T20:13:54.562Z,425.88
2022-11-08T20:16:26.755Z,432.00
2022-11-08T20:18:55.148Z,426.40
2022-11-08T20:21:24.460Z,420.17
2022-11-08T20:23:51.327Z,435.80
2022-11-08T20:26:21.418Z,442.95
2022-11-08T20:28:56.324Z,439.02
2022-11-08T20:31:25.001Z,441.85
2022-11-08T20:33:53.340Z,427.15
2022-11-08T20:36:22.519Z,407.25
2022-11-08T20:38:52.766Z,405.08
2022-11-08T20:41:21.030Z,411.75
2022-11-08T20:43:47.679Z,411.33
2022-11-08T20:46:24.153Z,413.75
2022-11-08T20:49:00.585Z,423.15
2022-11-08T20:51:30.613Z,421.50
2022-11-08T20:54:01.954Z,424.15
2022-11-08T20:56:29.223Z,418.27
2022-11-08T20:58:58.102Z,424.90
2022-11-08T21:01:33.283Z,431.88
2022-11-08T21:04:02.086Z,430.58
2022-11-08T21:06:32.925Z,429.73
2022-11-08T21:09:16.671Z,429.67
2022-11-08T21:11:54.379Z,431.73
2022-11-08T21:14:21.146Z,430.00
2022-11-08T21:17:19.566Z,427.52
2022-11-08T21:19:36.460Z,431.85
2022-11-08T21:22:15.292Z,426.58
2022-11-08T21:24:46.445Z,432.83
2022-11-08T21:27:16.644Z,435.58
2022-11-08T21:29:43.391Z,420.75
2022-11-08T21:32:11.408Z,432.10
2022-11-08T21:34:39.607Z,434.50
2022-11-08T21:37:07.888Z,429.40
2022-11-08T21:39:35.755Z,448.52
2022-11-08T21:42:02.336Z,447.92
2022-11-08T21:44:29.004Z,446.27
2022-11-08T21:46:57.667Z,447.98
2022-11-08T21:49:27.140Z,445.48
2022-11-08T21:51:53.768Z,434.80
2022-11-08T21:54:20.413Z,439.58
2022-11-08T21:56:47.033Z,434.80
2022-11-08T21:59:14.428Z,442.80
2022-11-08T22:01:41.510Z,424.00
2022-11-08T22:04:08.591Z,427.40
2022-11-08T22:06:36.201Z,426.13
2022-11-08T22:09:03.275Z,424.55
2022-11-08T22:11:29.951Z,423.15
2022-11-08T22:13:56.564Z,420.60
2022-11-08T22:16:23.154Z,421.88
2022-11-08T22:19:04.055Z,428.88
2022-11-08T22:21:37.833Z,424.15
2022-11-08T22:24:08.523Z,417.20
2022-11-08T22:26:35.454Z,422.08
2022-11-08T22:29:03.267Z,415.05
2022-11-08T22:31:30.397Z,419.40
2022-11-08T22:33:57.056Z,414.60
2022-11-08T22:36:23.759Z,413.38
2022-11-08T22:38:50.593Z,426.85
2022-11-08T22:41:18.773Z,415.27
2022-11-08T22:43:47.342Z,423.73
2022-11-08T22:46:14.510Z,429.45
2022-11-08T22:48:42.769Z,431.73
2022-11-08T22:51:09.885Z,437.73
2022-11-08T22:53:38.021Z,433.83
2022-11-08T22:56:11.501Z,442.55
2022-11-08T22:58:39.558Z,438.80
2022-11-08T23:01:07.631Z,433.05
2022-11-08T23:03:35.535Z,444.55
2022-11-08T23:06:14.478Z,447.02
2022-11-08T23:08:41.673Z,451.58
2022-11-08T23:11:28.599Z,441.95
2022-11-08T23:14:13.852Z,441.48
2022-11-08T23:16:43.581Z,443.92
2022-11-08T23:19:35.238Z,446.73
2022-11-08T23:22:21.246Z,453.23
2022-11-08T23:24:49.155Z,451.73
2022-11-08T23:27:56.474Z,457.02
2022-11-08T23:30:45.556Z,449.00
2022-11-08T23:33:15.565Z,447.75
2022-11-08T23:36:04.528Z,442.65
2022-11-08T23:38:31.379Z,440.95
2022-11-08T23:41:24.025Z,435.73
2022-11-08T23:44:09.325Z,445.38
2022-11-08T23:46:36.546Z,442.15
2022-11-08T23:49:04.167Z,444.27
2022-11-08T23:51:30.915Z,436.85
2022-11-08T23:53:58.701Z,433.38
2022-11-08T23:56:27.740Z,446.02
2022-11-08T23:58:58.008Z,444.20
